Murry, Missouri
Current Conditions -  °F | °C
As of 1:54 PM on Thursday 30 Oct 2014 (Local Time) from KCOU Reporting Station
Few Clouds Few Clouds  
Wind Chill: 51°   Ceiling: Unl
Heat Index: 51°   Visibility: 10mi
Dew Point: 46°   Wind: 12mph
Humidity: 83%   Direction: 180°S
Pressure: 29.98"   Gusts: NA
Location:  39.0235°N, 92.2896°W
Report Text: KCOU 301854Z 18010KT 10SM FEW090 11/08 A2998 RMK AO2 LTG DSNT S AND SW RAE35 SLP154 P0001 T01060078
Loading
Personal Weather Stations






























Interactive Weather Map
Tropical Storm Tracking
New forecast layout! Learn more

10-Day Weather Forecast

Advertisements
Track Severe Weather on mobile